Airfield :
LOGIN :

Register | Disclaimer

   EN    FR    IT 

 










Legend :    VFR   Marginal VFR   IFR   Intensive IFR   Very Intensive IFR
Visi :
Ceiling :
>= 8 km
>= 3000ft
5 to 8 km
1000 to 3000 ft
1500m to 5 km
500 to 1000 ft
800 to 1500m
200 to 500 ft
< 800m
< 200 ft
Symbols :   Thunderstorms  Fog  Heavy snow  Heavy precipitations  Wind > 20 kt
SIGMETs :     Misc.  Thunderstorms  Icing  Turbulence  Mountain Waves  Volcanic Ashes






- Airport Elevation : 511 ft
- IATA code : LHA


EDTL - Lahr Schwarzwald

CURRENT METAR :
  • 291120Z 27003KT 230V310 8000 -RA SCT003 BKN015 OVC036 04/03 Q1013

EXPIRED METARs :
  • 291050Z 22006KT 8000 -RA SCT003 BKN031 OVC040 04/03 Q1014
  • 291020Z 31004KT 230V340 6000 -RA SCT003 BKN015 OVC020 04/03 Q1013
  • 290950Z 20007KT 180V250 9999 -RA FEW014 OVC030 04/02 Q1013
  • 290920Z 20009KT 8000 -RA FEW004 BKN032 OVC038 04/02 Q1013
  • 290850Z 19008KT 9999 -RA SCT036 OVC049 05/01 Q1012

TAF TAF EDTL
Valid from the 29 at 09:00 until the 29 at 18:00 UTC


290800Z 2909/2918 21010KT 9999 BKN045
PROB30
TEMPO 2909/2915 22015G30KT 4500 SHRA BKN020CB



MET'MAP, your aeronautical weather chart ! - Copyright ORBIFLY December 2007 - Disclaimer

ORBIFLY MET'MAP TEAM :

Programming & Development : Alexandra Zaïnal
Concept & original design : Baudouin d'Aumeries
Assistance for programming : Marc-Olivier Méhu
Technical & hardware support : Manuel Goepfert

Contact : metmap@orbifly.com




SOURCES & CREDITS :

   NOAA